KBLU

Details ICAO KBLU
Name BLUE CANYON NYACK
Region United States
Timezone America/Los_Angeles (UTC-7.0)
Plans Departing 3
Arriving 4
Stats Elevation 5,284 ft / 1,611 m (AMSL)
Location 39.274958° -120.709761°
Runways 1
Magnetic Variation 13.493° E
Sunrise 2018-05-24 12:43:50 UTC / 2018-05-24 05:43:50 Local
Sunset 2018-05-25 03:18:27 UTC / 2018-05-24 20:18:27 Local
Advertisement - Login to hide

Runways

ID Width Length Bearing (true) Bearing (mag) Surface Threshold Offset Overrun Length
15 50 ft / 15 m 3,305 ft / 1,008 m 167.69° 154.20° Asphalt 0 ft / 0 m 0 ft / 0 m
33 50 ft / 15 m 3,305 ft / 1,008 m 347.69° 334.20° Asphalt 0 ft / 0 m 0 ft / 0 m

Map

Weather


0- 5 10 15 20 25 30 35+ Temperature / ° C

Clouds and Precipitation
Forecast for 2018-05-25 06:00 UTC. Updated an hour ago

Ground ~20,000 ft ~40,000 ft Winds

METAR

KBLU 250552Z AUTO 34004KT 10SM OVC055 10/09 A3008 RMK AO2 SLP129 T01000094 10156 20100 58006 TSNO $

TAF

Not found

Frequencies

Recorded 120.07 MHz ASOS
Unicom 122.90 MHz CTAF
Warning: Do not use this data for real-world aviation or navigation. No guarantee of current accuracy is given.